createdAt,value
2023-05-06T00:02:01.713Z,100.00
2023-05-06T00:04:28.618Z,100.00
2023-05-06T00:06:56.821Z,100.00
2023-05-06T00:09:28.040Z,100.00
2023-05-06T00:11:54.820Z,100.00
2023-05-06T00:14:21.581Z,100.00
2023-05-06T00:16:48.499Z,100.00
2023-05-06T00:19:15.540Z,100.00
2023-05-06T00:21:42.400Z,100.00
2023-05-06T00:24:09.391Z,100.00
2023-05-06T00:26:36.165Z,100.00
2023-05-06T00:29:03.011Z,100.00
2023-05-06T00:31:29.810Z,100.00
2023-05-06T00:33:56.771Z,100.00
2023-05-06T00:36:23.767Z,100.00
2023-05-06T00:38:51.063Z,100.00
2023-05-06T00:41:17.841Z,100.00
2023-05-06T00:43:44.602Z,100.00
2023-05-06T00:46:11.770Z,100.00
2023-05-06T00:48:38.618Z,100.00
2023-05-06T00:51:06.252Z,100.00
2023-05-06T00:53:33.469Z,100.00
2023-05-06T00:56:00.362Z,100.00
2023-05-06T00:58:27.233Z,100.00
2023-05-06T01:00:55.338Z,100.00
2023-05-06T01:03:23.065Z,100.00
2023-05-06T01:05:59.596Z,100.00
2023-05-06T01:08:44.727Z,100.00
2023-05-06T01:11:19.629Z,100.00
2023-05-06T01:13:54.804Z,100.00
2023-05-06T01:16:23.671Z,100.00
2023-05-06T01:18:52.450Z,100.00
2023-05-06T01:21:19.543Z,100.00
2023-05-06T01:23:53.001Z,100.00
2023-05-06T01:26:19.891Z,100.00
2023-05-06T01:28:46.727Z,100.00
2023-05-06T01:31:17.908Z,100.00
2023-05-06T01:34:06.315Z,100.00
2023-05-06T01:36:41.406Z,100.00
2023-05-06T01:39:25.093Z,100.00
2023-05-06T01:41:54.329Z,100.00
2023-05-06T01:44:22.564Z,100.00
2023-05-06T01:46:50.352Z,100.00
2023-05-06T01:49:18.797Z,100.00
2023-05-06T01:51:49.609Z,100.00
2023-05-06T01:54:17.190Z,100.00
2023-05-06T01:56:44.838Z,100.00
2023-05-06T01:59:11.676Z,100.00
2023-05-06T02:01:38.514Z,100.00
2023-05-06T02:04:07.364Z,100.00
2023-05-06T02:06:34.313Z,100.00
2023-05-06T02:09:01.379Z,100.00
2023-05-06T02:11:29.787Z,100.00
2023-05-06T02:14:02.549Z,100.00
2023-05-06T02:16:31.952Z,100.00
2023-05-06T02:18:58.746Z,100.00
2023-05-06T02:21:25.868Z,100.00
2023-05-06T02:23:52.582Z,100.00
2023-05-06T02:26:19.420Z,100.00
2023-05-06T02:28:46.297Z,100.00
2023-05-06T02:31:15.205Z,100.00
2023-05-06T02:33:42.147Z,100.00
2023-05-06T02:36:10.153Z,100.00
2023-05-06T02:38:37.042Z,100.00
2023-05-06T02:41:03.818Z,100.00
2023-05-06T02:43:30.627Z,100.00
2023-05-06T02:45:58.447Z,100.00
2023-05-06T02:48:25.973Z,100.00
2023-05-06T02:50:52.714Z,100.00
2023-05-06T02:53:19.621Z,100.00
2023-05-06T02:55:46.660Z,100.00
2023-05-06T02:58:14.344Z,100.00
2023-05-06T03:00:41.184Z,100.00
2023-05-06T03:03:07.967Z,100.00
2023-05-06T03:05:34.921Z,100.00
2023-05-06T03:08:02.592Z,100.00
2023-05-06T03:10:30.730Z,100.00
2023-05-06T03:12:58.586Z,100.00
2023-05-06T03:15:26.066Z,100.00
2023-05-06T03:17:53.786Z,100.00
2023-05-06T03:20:21.329Z,100.00
2023-05-06T03:22:52.044Z,100.00
2023-05-06T03:25:20.051Z,100.00
2023-05-06T03:27:47.257Z,100.00
2023-05-06T03:30:18.887Z,100.00
2023-05-06T03:32:47.390Z,100.00
2023-05-06T03:35:17.986Z,100.00
2023-05-06T03:37:49.022Z,100.00
2023-05-06T03:40:16.661Z,100.00
2023-05-06T03:42:43.616Z,100.00
2023-05-06T03:45:11.007Z,100.00
2023-05-06T03:47:38.411Z,100.00
2023-05-06T03:50:08.123Z,100.00
2023-05-06T03:52:36.506Z,100.00
2023-05-06T03:55:04.932Z,100.00
2023-05-06T03:57:31.821Z,100.00
2023-05-06T03:59:58.655Z,100.00
2023-05-06T04:02:29.396Z,100.00
2023-05-06T04:04:57.593Z,100.00
2023-05-06T04:07:24.243Z,100.00
2023-05-06T04:09:51.126Z,100.00
2023-05-06T04:12:18.463Z,100.00
2023-05-06T04:14:46.392Z,100.00
2023-05-06T04:17:13.360Z,100.00
2023-05-06T04:19:40.203Z,100.00
2023-05-06T04:22:06.875Z,100.00
2023-05-06T04:24:34.945Z,100.00
2023-05-06T04:27:03.194Z,100.00
2023-05-06T04:29:30.490Z,100.00
2023-05-06T04:32:03.684Z,100.00
2023-05-06T04:34:36.393Z,100.00
2023-05-06T04:37:05.683Z,100.00
2023-05-06T04:39:47.050Z,100.00
2023-05-06T04:42:14.595Z,100.00
2023-05-06T04:44:49.056Z,100.00
2023-05-06T04:47:17.851Z,100.00
2023-05-06T04:49:48.091Z,100.00
2023-05-06T04:52:15.249Z,100.00
2023-05-06T04:54:43.562Z,100.00
2023-05-06T04:57:12.226Z,100.00
2023-05-06T04:59:42.633Z,100.00
2023-05-06T05:02:09.856Z,100.00
2023-05-06T05:04:36.931Z,100.00
2023-05-06T05:07:03.790Z,100.00
2023-05-06T05:09:31.846Z,100.00
2023-05-06T05:11:58.795Z,100.00
2023-05-06T05:14:26.207Z,100.00
2023-05-06T05:16:53.006Z,100.00
2023-05-06T05:19:19.685Z,100.00
2023-05-06T05:21:46.557Z,100.00
2023-05-06T05:24:13.828Z,100.00
2023-05-06T05:26:40.577Z,100.00
2023-05-06T05:29:07.408Z,100.00
2023-05-06T05:31:35.401Z,100.00
2023-05-06T05:34:02.245Z,100.00
2023-05-06T05:36:29.148Z,100.00
2023-05-06T05:38:58.590Z,100.00
2023-05-06T05:41:27.907Z,100.00
2023-05-06T05:43:55.542Z,100.00
2023-05-06T05:46:22.944Z,100.00
2023-05-06T05:48:51.009Z,100.00
2023-05-06T05:51:20.476Z,100.00
2023-05-06T05:53:47.394Z,100.00
2023-05-06T05:56:14.632Z,100.00
2023-05-06T05:58:41.955Z,98.68
2023-05-06T06:01:09.372Z,92.77
2023-05-06T06:03:36.566Z,73.31
2023-05-06T06:06:05.550Z,60.14
2023-05-06T06:08:33.209Z,59.00
2023-05-06T06:11:01.988Z,55.64
2023-05-06T06:13:35.162Z,52.05
2023-05-06T06:16:02.070Z,50.72
2023-05-06T06:18:29.064Z,48.47
2023-05-06T06:20:55.849Z,49.97
2023-05-06T06:23:23.778Z,50.11
2023-05-06T06:25:50.671Z,53.07
2023-05-06T06:28:17.542Z,55.21
2023-05-06T06:30:45.195Z,62.50
2023-05-06T06:33:12.071Z,62.20
2023-05-06T06:35:40.046Z,65.99
2023-05-06T06:38:06.772Z,67.87
2023-05-06T06:40:33.651Z,76.49
2023-05-06T06:43:01.135Z,77.70
2023-05-06T06:45:51.341Z,65.90
2023-05-06T06:48:18.710Z,66.94
2023-05-06T06:50:45.450Z,65.56
2023-05-06T06:53:12.251Z,64.41
2023-05-06T06:55:39.015Z,73.80
2023-05-06T06:58:05.900Z,72.88
2023-05-06T07:00:32.710Z,83.28
2023-05-06T07:02:59.429Z,83.96
2023-05-06T07:05:27.040Z,85.73
2023-05-06T07:07:54.525Z,83.39
2023-05-06T07:10:21.945Z,91.01
2023-05-06T07:12:48.738Z,96.80
2023-05-06T07:15:15.945Z,94.64
2023-05-06T07:17:42.862Z,96.44
2023-05-06T07:20:10.340Z,92.03
2023-05-06T07:22:39.655Z,95.33
2023-05-06T07:25:07.048Z,97.74
2023-05-06T07:27:33.801Z,97.61
2023-05-06T07:30:00.736Z,99.32
2023-05-06T07:32:27.541Z,89.61
2023-05-06T07:34:54.554Z,96.10
2023-05-06T07:37:21.436Z,88.77
2023-05-06T07:39:48.368Z,86.97
2023-05-06T07:42:15.558Z,90.02
2023-05-06T07:44:42.297Z,96.32
2023-05-06T07:47:10.161Z,88.88
2023-05-06T07:49:37.217Z,94.76
2023-05-06T07:52:04.750Z,81.30
2023-05-06T07:54:32.088Z,89.69
2023-05-06T07:56:59.116Z,95.18
2023-05-06T07:59:26.023Z,99.38
2023-05-06T08:01:52.832Z,98.21
2023-05-06T08:04:19.762Z,94.55
2023-05-06T08:06:46.554Z,93.93
2023-05-06T08:09:22.027Z,96.94
2023-05-06T08:11:50.256Z,93.31
2023-05-06T08:14:17.146Z,100.00
2023-05-06T08:16:43.978Z,99.02
2023-05-06T08:19:10.817Z,98.70
2023-05-06T08:21:37.656Z,95.08
2023-05-06T08:24:04.578Z,92.48
2023-05-06T08:26:31.384Z,92.83
2023-05-06T08:28:59.578Z,93.67
2023-05-06T08:31:26.793Z,95.89
2023-05-06T08:33:54.785Z,96.86
2023-05-06T08:36:22.398Z,93.09
2023-05-06T08:38:51.124Z,96.21
2023-05-06T08:41:19.654Z,88.91
2023-05-06T08:43:48.712Z,85.99
2023-05-06T08:46:16.790Z,89.87
2023-05-06T08:48:44.415Z,91.94
2023-05-06T08:51:15.197Z,93.42
2023-05-06T08:53:55.893Z,91.90
2023-05-06T08:56:30.477Z,91.15
2023-05-06T08:58:58.888Z,92.03
2023-05-06T09:01:28.186Z,89.56
2023-05-06T09:04:06.553Z,93.36
2023-05-06T09:06:54.097Z,92.66
2023-05-06T09:09:35.058Z,89.16
2023-05-06T09:12:18.330Z,93.08
2023-05-06T09:15:05.006Z,90.19
2023-05-06T09:17:48.335Z,90.54
2023-05-06T09:20:38.504Z,95.59
2023-05-06T09:27:10.890Z,93.55
2023-05-06T09:30:15.615Z,92.96
2023-05-06T09:33:15.512Z,91.08
2023-05-06T09:36:22.836Z,93.37
2023-05-06T09:39:01.240Z,91.08
2023-05-06T09:41:46.477Z,92.49
2023-05-06T09:44:39.995Z,92.37
2023-05-06T09:47:33.896Z,89.01
2023-05-06T09:50:39.938Z,88.64
2023-05-06T09:53:23.332Z,90.89
2023-05-06T09:56:14.694Z,90.24
2023-05-06T09:58:53.077Z,88.74
2023-05-06T10:01:38.455Z,89.48
2023-05-06T10:04:32.419Z,88.16
2023-05-06T10:07:27.571Z,83.94
2023-05-06T10:10:04.272Z,86.01
2023-05-06T10:12:41.104Z,84.03
2023-05-06T10:15:29.212Z,83.90
2023-05-06T10:18:01.440Z,73.89
2023-05-06T10:20:30.989Z,82.83
2023-05-06T10:23:08.184Z,83.04
2023-05-06T10:25:49.011Z,81.28
2023-05-06T10:28:21.800Z,83.34
2023-05-06T10:30:59.824Z,81.01
2023-05-06T10:33:28.181Z,79.41
2023-05-06T10:36:28.601Z,74.52
2023-05-06T10:38:57.545Z,83.02
2023-05-06T10:41:28.054Z,82.94
2023-05-06T10:44:00.558Z,75.29
2023-05-06T10:46:32.734Z,80.41
2023-05-06T10:52:14.521Z,77.90
2023-05-06T10:54:52.505Z,81.27
2023-05-06T10:57:23.549Z,79.98
2023-05-06T10:59:52.391Z,81.33
2023-05-06T11:02:21.352Z,81.03
2023-05-06T11:04:51.944Z,79.20
2023-05-06T11:07:24.352Z,76.16
2023-05-06T11:10:02.039Z,77.62
2023-05-06T11:12:52.165Z,72.81
2023-05-06T11:15:26.587Z,75.57
2023-05-06T11:17:56.369Z,76.30
2023-05-06T11:20:26.224Z,69.43
2023-05-06T11:22:54.247Z,64.89
2023-05-06T11:25:41.454Z,64.74
2023-05-06T11:28:11.061Z,65.30
2023-05-06T11:30:42.020Z,62.30
2023-05-06T11:33:14.455Z,60.55
2023-05-06T11:35:41.826Z,66.58
2023-05-06T11:38:09.993Z,64.92
2023-05-06T11:40:38.157Z,62.65
2023-05-06T11:43:12.196Z,63.45
2023-05-06T11:45:48.679Z,65.57
2023-05-06T11:48:16.878Z,61.50
2023-05-06T11:50:48.123Z,63.10
2023-05-06T11:53:19.188Z,67.45
2023-05-06T11:55:47.425Z,65.16
2023-05-06T11:58:20.181Z,62.05
2023-05-06T12:00:51.431Z,63.43
2023-05-06T12:03:20.108Z,66.14
2023-05-06T12:05:50.748Z,68.35
2023-05-06T12:08:28.066Z,67.62
2023-05-06T12:11:08.421Z,67.21
2023-05-06T12:13:40.695Z,66.83
2023-05-06T12:16:08.632Z,65.38
2023-05-06T12:18:35.980Z,63.46
2023-05-06T12:21:03.744Z,68.03
2023-05-06T12:23:30.985Z,67.58
2023-05-06T12:26:04.986Z,69.69
2023-05-06T12:28:35.851Z,65.79
2023-05-06T12:31:23.372Z,67.20
2023-05-06T12:33:50.965Z,68.46
2023-05-06T12:36:19.174Z,69.35
2023-05-06T12:38:57.306Z,70.50
2023-05-06T12:41:26.382Z,73.95
2023-05-06T12:43:53.093Z,79.04
2023-05-06T12:46:20.224Z,83.57
2023-05-06T12:49:03.490Z,80.62
2023-05-06T12:51:33.650Z,81.74
2023-05-06T12:54:00.547Z,81.25
2023-05-06T12:56:27.790Z,79.12
2023-05-06T12:59:01.755Z,77.90
2023-05-06T13:01:28.650Z,81.08
2023-05-06T13:03:57.217Z,78.74
2023-05-06T13:06:24.323Z,74.74
2023-05-06T13:08:51.051Z,73.36
2023-05-06T13:11:18.018Z,78.07
2023-05-06T13:13:45.112Z,74.14
2023-05-06T13:16:11.941Z,75.49
2023-05-06T13:18:39.004Z,78.84
2023-05-06T13:21:05.892Z,79.85
2023-05-06T13:23:35.039Z,76.09
2023-05-06T13:26:06.008Z,78.78
2023-05-06T13:28:35.419Z,76.30
2023-05-06T13:31:02.292Z,77.72
2023-05-06T13:33:29.274Z,79.51
2023-05-06T13:35:56.008Z,78.19
2023-05-06T13:38:23.330Z,77.74
2023-05-06T13:40:53.995Z,76.04
2023-05-06T13:43:21.723Z,71.89
2023-05-06T13:45:48.522Z,70.23
2023-05-06T13:48:15.329Z,68.28
2023-05-06T13:50:43.063Z,72.76
2023-05-06T13:53:10.895Z,69.06
2023-05-06T13:55:38.092Z,73.39
2023-05-06T13:58:05.848Z,73.55
2023-05-06T14:00:33.204Z,71.45
2023-05-06T14:03:00.740Z,69.20
2023-05-06T14:05:27.782Z,69.80
2023-05-06T14:07:54.507Z,67.11
2023-05-06T14:10:21.310Z,66.70
2023-05-06T14:12:48.564Z,69.62
2023-05-06T14:15:15.272Z,66.16
2023-05-06T14:17:42.542Z,72.07
2023-05-06T14:20:10.234Z,72.85
2023-05-06T14:22:39.805Z,70.98
2023-05-06T14:25:07.282Z,70.36
2023-05-06T14:27:34.523Z,71.74
2023-05-06T14:30:02.353Z,68.94
2023-05-06T14:32:29.458Z,72.72
2023-05-06T14:34:56.957Z,70.17
2023-05-06T14:37:23.905Z,73.53
2023-05-06T14:39:50.738Z,71.62
2023-05-06T14:42:17.640Z,68.54
2023-05-06T14:44:48.593Z,72.84
2023-05-06T14:47:15.355Z,72.76
2023-05-06T14:49:42.030Z,72.82
2023-05-06T14:52:08.847Z,74.17
2023-05-06T14:54:36.871Z,69.80
2023-05-06T14:57:03.913Z,67.56
2023-05-06T14:59:30.595Z,67.61
2023-05-06T15:01:58.802Z,71.07
2023-05-06T15:04:25.564Z,66.61
2023-05-06T15:06:52.341Z,66.14
2023-05-06T15:09:19.024Z,68.46
2023-05-06T15:11:46.741Z,68.88
2023-05-06T15:14:13.608Z,67.29
2023-05-06T15:16:41.102Z,67.83
2023-05-06T15:19:08.098Z,65.04
2023-05-06T15:21:35.437Z,64.26
2023-05-06T15:24:02.412Z,69.37
2023-05-06T15:26:29.557Z,70.00
2023-05-06T15:28:56.274Z,75.55
2023-05-06T15:31:23.197Z,71.84
2023-05-06T15:33:50.040Z,72.57
2023-05-06T15:36:16.941Z,72.59
2023-05-06T15:38:52.815Z,73.92
2023-05-06T15:41:19.935Z,68.72
2023-05-06T15:43:46.664Z,71.11
2023-05-06T15:46:13.465Z,76.04
2023-05-06T15:48:40.227Z,83.53
2023-05-06T15:51:07.830Z,83.59
2023-05-06T15:53:34.767Z,82.38
2023-05-06T15:56:13.212Z,82.40
2023-05-06T15:58:44.942Z,76.03
2023-05-06T16:01:11.793Z,74.16
2023-05-06T16:03:41.130Z,73.24
2023-05-06T16:06:09.918Z,70.03
2023-05-06T16:08:38.049Z,67.30
2023-05-06T16:11:05.512Z,68.34
2023-05-06T16:13:32.446Z,68.96
2023-05-06T16:16:01.251Z,63.83
2023-05-06T16:18:28.317Z,64.60
2023-05-06T16:20:56.056Z,62.35
2023-05-06T16:23:23.022Z,63.83
2023-05-06T16:25:49.885Z,64.47
2023-05-06T16:28:16.886Z,66.47
2023-05-06T16:30:46.325Z,62.33
2023-05-06T16:33:13.515Z,63.39
2023-05-06T16:35:40.608Z,63.32
2023-05-06T16:38:07.557Z,67.47
2023-05-06T16:40:42.012Z,66.98
2023-05-06T16:43:09.725Z,63.97
2023-05-06T16:45:36.480Z,63.79
2023-05-06T16:48:03.402Z,63.81
2023-05-06T16:50:30.200Z,64.34
2023-05-06T16:52:57.737Z,64.65
2023-05-06T16:55:24.600Z,70.88
2023-05-06T16:57:51.444Z,68.07
2023-05-06T17:00:18.756Z,67.15
2023-05-06T17:02:46.308Z,70.96
2023-05-06T17:05:13.145Z,66.59
2023-05-06T17:07:40.231Z,67.18
2023-05-06T17:10:08.471Z,67.58
2023-05-06T17:12:35.750Z,67.71
2023-05-06T17:15:03.911Z,73.25
2023-05-06T17:17:32.743Z,68.86
2023-05-06T17:20:00.369Z,68.36
2023-05-06T17:22:27.147Z,66.99
2023-05-06T17:24:53.989Z,68.29
2023-05-06T17:27:21.160Z,66.94
2023-05-06T17:29:47.937Z,67.26
2023-05-06T17:32:14.716Z,69.52
2023-05-06T17:34:41.659Z,67.06
2023-05-06T17:37:08.965Z,73.31
2023-05-06T17:39:36.446Z,76.97
2023-05-06T17:42:03.385Z,72.93
2023-05-06T17:44:30.245Z,73.24
2023-05-06T17:46:57.091Z,74.68
2023-05-06T17:49:23.989Z,73.74
2023-05-06T17:51:51.182Z,77.59
2023-05-06T17:54:18.243Z,80.11
2023-05-06T17:56:50.734Z,80.06
2023-05-06T17:59:19.552Z,78.56
2023-05-06T18:01:46.727Z,76.46
2023-05-06T18:04:14.049Z,77.07
2023-05-06T18:06:42.022Z,77.79
2023-05-06T18:09:10.400Z,76.99
2023-05-06T18:11:38.528Z,79.91
2023-05-06T18:14:06.479Z,78.81
2023-05-06T18:16:34.932Z,78.89
2023-05-06T18:19:04.642Z,79.83
2023-05-06T18:21:32.401Z,81.02
2023-05-06T18:24:10.265Z,84.47
2023-05-06T18:26:45.421Z,86.65
2023-05-06T18:29:13.371Z,87.33
2023-05-06T18:31:40.360Z,86.50
2023-05-06T18:34:07.231Z,86.22
2023-05-06T18:36:35.115Z,87.33
2023-05-06T18:39:05.678Z,88.09
2023-05-06T18:41:33.236Z,89.38
2023-05-06T18:43:59.999Z,88.97
2023-05-06T18:46:27.611Z,91.07
2023-05-06T18:48:56.285Z,90.14
2023-05-06T18:51:26.456Z,90.96
2023-05-06T18:53:53.583Z,91.57
2023-05-06T18:56:21.478Z,89.83
2023-05-06T18:58:48.296Z,90.43
2023-05-06T19:01:15.639Z,90.04
2023-05-06T19:03:42.840Z,89.30
2023-05-06T19:06:10.597Z,82.11
2023-05-06T19:08:37.760Z,84.24
2023-05-06T19:11:04.779Z,86.45
2023-05-06T19:13:31.728Z,92.22
2023-05-06T19:15:58.460Z,87.21
2023-05-06T19:18:25.231Z,88.12
2023-05-06T19:20:53.431Z,89.85
2023-05-06T19:23:20.516Z,88.81
2023-05-06T19:25:47.859Z,91.62
2023-05-06T19:28:14.624Z,85.21
2023-05-06T19:30:41.618Z,88.34
2023-05-06T19:33:08.454Z,89.08
2023-05-06T19:35:38.771Z,91.69
2023-05-06T19:38:07.234Z,91.28
2023-05-06T19:40:35.492Z,85.39
2023-05-06T19:43:05.145Z,87.18
2023-05-06T19:45:33.572Z,85.30
2023-05-06T19:48:01.383Z,85.25
2023-05-06T19:50:28.595Z,89.54
2023-05-06T19:52:55.957Z,87.19
2023-05-06T19:55:23.334Z,89.40
2023-05-06T19:57:51.224Z,89.85
2023-05-06T20:00:20.101Z,89.35
2023-05-06T20:02:47.237Z,87.41
2023-05-06T20:05:14.327Z,91.10
2023-05-06T20:07:41.462Z,90.98
2023-05-06T20:10:10.136Z,91.04
2023-05-06T20:12:37.050Z,89.98
2023-05-06T20:15:04.362Z,91.05
2023-05-06T20:17:31.206Z,91.36
2023-05-06T20:19:58.649Z,94.97
2023-05-06T20:22:25.924Z,94.51
2023-05-06T20:24:53.338Z,96.95
2023-05-06T20:27:23.100Z,100.00
2023-05-06T20:29:51.649Z,100.00
2023-05-06T20:32:18.629Z,99.59
2023-05-06T20:34:45.886Z,100.00
2023-05-06T20:37:12.754Z,100.00
2023-05-06T20:39:39.510Z,100.00
2023-05-06T20:42:06.454Z,100.00
2023-05-06T20:44:33.801Z,100.00
2023-05-06T20:47:02.068Z,100.00
2023-05-06T20:49:29.223Z,100.00
2023-05-06T20:51:56.239Z,100.00
2023-05-06T20:54:22.929Z,100.00
2023-05-06T20:56:49.874Z,100.00
2023-05-06T20:59:16.690Z,100.00
2023-05-06T21:01:43.836Z,100.00
2023-05-06T21:04:10.837Z,100.00
2023-05-06T21:06:37.544Z,100.00
2023-05-06T21:09:04.295Z,100.00
2023-05-06T21:11:34.407Z,100.00
2023-05-06T21:14:01.264Z,100.00
2023-05-06T21:16:28.095Z,100.00
2023-05-06T21:18:54.824Z,100.00
2023-05-06T21:21:24.580Z,100.00
2023-05-06T21:23:51.767Z,100.00
2023-05-06T21:26:18.681Z,100.00
2023-05-06T21:28:51.135Z,100.00
2023-05-06T21:31:23.902Z,100.00
2023-05-06T21:33:55.743Z,100.00
2023-05-06T21:36:22.781Z,100.00
2023-05-06T21:38:59.212Z,100.00
2023-05-06T21:41:26.442Z,100.00
2023-05-06T21:43:53.264Z,100.00
2023-05-06T21:46:20.057Z,100.00
2023-05-06T21:48:46.724Z,100.00
2023-05-06T21:51:13.644Z,100.00
2023-05-06T21:53:41.582Z,100.00
2023-05-06T21:56:08.429Z,100.00
2023-05-06T21:58:35.323Z,100.00
2023-05-06T22:01:02.091Z,100.00
2023-05-06T22:03:28.987Z,100.00
2023-05-06T22:05:56.144Z,100.00
2023-05-06T22:08:23.002Z,100.00
2023-05-06T22:10:49.734Z,100.00
2023-05-06T22:13:16.844Z,100.00
2023-05-06T22:15:43.824Z,100.00
2023-05-06T22:18:10.906Z,100.00
2023-05-06T22:20:37.748Z,100.00
2023-05-06T22:23:04.673Z,100.00
2023-05-06T22:25:31.457Z,100.00
2023-05-06T22:27:58.350Z,100.00
2023-05-06T22:30:25.138Z,100.00
2023-05-06T22:32:57.879Z,100.00
2023-05-06T22:35:24.639Z,100.00
2023-05-06T22:37:51.275Z,100.00
2023-05-06T22:40:18.098Z,100.00
2023-05-06T22:42:44.863Z,100.00
2023-05-06T22:45:12.027Z,100.00
2023-05-06T22:47:39.033Z,100.00
2023-05-06T22:50:06.812Z,100.00
2023-05-06T22:52:34.286Z,100.00
2023-05-06T22:55:01.170Z,100.00
2023-05-06T22:57:27.946Z,100.00
2023-05-06T22:59:54.842Z,100.00
2023-05-06T23:02:21.588Z,100.00
2023-05-06T23:04:48.557Z,100.00
2023-05-06T23:07:15.728Z,100.00
2023-05-06T23:09:42.477Z,100.00
2023-05-06T23:12:09.286Z,100.00
2023-05-06T23:14:36.674Z,100.00
2023-05-06T23:17:03.544Z,100.00
2023-05-06T23:19:30.747Z,100.00
2023-05-06T23:21:57.596Z,100.00
2023-05-06T23:24:24.396Z,100.00
2023-05-06T23:26:52.025Z,100.00
2023-05-06T23:29:18.801Z,100.00
2023-05-06T23:31:45.648Z,100.00
2023-05-06T23:34:12.545Z,100.00
2023-05-06T23:36:39.365Z,100.00
2023-05-06T23:39:06.019Z,100.00
2023-05-06T23:41:32.731Z,100.00
2023-05-06T23:43:59.421Z,100.00
2023-05-06T23:46:26.351Z,100.00
2023-05-06T23:48:53.170Z,100.00
2023-05-06T23:51:19.838Z,100.00
2023-05-06T23:53:47.007Z,100.00
2023-05-06T23:56:13.732Z,100.00
2023-05-06T23:58:40.550Z,100.00
